createdAt,value
2024-02-05T00:00:03.317Z,0.72
2024-02-05T00:16:03.952Z,0.56
2024-02-05T00:31:04.661Z,0.5
2024-02-05T00:46:05.481Z,0.44
2024-02-05T01:00:06.050Z,0.44
2024-02-05T01:16:01.824Z,0.44
2024-02-05T01:31:02.327Z,0.33
2024-02-05T01:46:02.143Z,0.11
2024-02-05T02:00:03.603Z,-0.17
2024-02-05T02:16:03.970Z,-0.33
2024-02-05T02:31:04.877Z,0.28
2024-02-05T02:46:05.338Z,0.83
2024-02-05T03:00:05.916Z,1
2024-02-05T03:16:01.724Z,1.33
2024-02-05T03:31:02.443Z,1.5
2024-02-05T03:46:03.175Z,1.72
2024-02-05T04:00:03.879Z,1.78
2024-02-05T04:16:04.554Z,1.83
2024-02-05T04:31:05.478Z,1.72
2024-02-05T04:46:05.972Z,1.56
2024-02-05T05:00:01.780Z,1.39
2024-02-05T05:16:01.909Z,1.28
2024-02-05T05:31:02.640Z,1.33
2024-02-05T05:46:03.294Z,1.28
2024-02-05T06:00:04.093Z,1.39
2024-02-05T06:16:04.333Z,1.78
2024-02-05T06:31:05.181Z,1.89
2024-02-05T06:46:05.679Z,1.83
2024-02-05T06:59:40.325Z,2
2024-02-05T07:00:04.540Z,2
2024-02-05T07:05:50.812Z,2
2024-02-05T07:10:36.167Z,2.11
2024-02-05T07:24:17.412Z,2.22
2024-02-05T07:26:02.890Z,2.28
2024-02-05T07:45:18.021Z,2.56
2024-02-05T08:00:03.980Z,2.61
2024-02-05T08:16:03.654Z,2.94
2024-02-05T08:31:05.104Z,3.17
2024-02-05T08:46:19.938Z,3.61
2024-02-05T09:00:06.320Z,4.33
2024-02-05T09:16:02.292Z,5.44
2024-02-05T09:31:11.410Z,6.56
2024-02-05T09:46:03.780Z,7.56
2024-02-05T10:00:04.304Z,8.39
2024-02-05T10:16:04.904Z,9.22
2024-02-05T10:31:05.171Z,9.83
2024-02-05T10:46:05.566Z,10.78
2024-02-05T11:00:05.828Z,11.83
2024-02-05T11:16:06.126Z,12.78
2024-02-05T11:31:06.869Z,13.44
2024-02-05T11:46:02.537Z,14.11
2024-02-05T12:00:03.332Z,14.72
2024-02-05T12:16:04.174Z,15.44
2024-02-05T12:31:05.074Z,16.28
2024-02-05T12:46:05.680Z,17.11
2024-02-05T13:00:06.071Z,17.89
2024-02-05T13:16:06.427Z,18.44
2024-02-05T13:31:01.875Z,18.83
2024-02-05T13:46:02.558Z,19.11
2024-02-05T14:00:03.097Z,19.56
2024-02-05T14:16:04.133Z,19.67
2024-02-05T14:31:04.450Z,19.44
2024-02-05T14:46:04.822Z,19.06
2024-02-05T15:00:05.283Z,18.72
2024-02-05T15:16:05.913Z,18.11
2024-02-05T15:31:06.190Z,17.39
2024-02-05T15:46:04.037Z,16.56
2024-02-05T16:00:02.044Z,15.33
2024-02-05T16:16:02.400Z,13.72
2024-02-05T16:31:03.004Z,12.44
2024-02-05T16:46:03.644Z,11.11
2024-02-05T17:00:04.246Z,10.11
2024-02-05T17:16:05.040Z,9
2024-02-05T17:31:05.852Z,7.94
2024-02-05T17:46:01.738Z,7.28
2024-02-05T18:00:02.428Z,6.72
2024-02-05T18:16:02.995Z,6.11
2024-02-05T18:31:03.715Z,5.56
2024-02-05T18:46:04.793Z,5.06
2024-02-05T19:00:04.982Z,4.72
2024-02-05T19:16:05.863Z,4.28
2024-02-05T19:31:06.321Z,3.89
2024-02-05T19:46:01.787Z,3.67
2024-02-05T20:00:02.259Z,3.44
2024-02-05T20:16:03.036Z,3.28
2024-02-05T20:31:03.500Z,3
2024-02-05T20:46:03.979Z,2.67
2024-02-05T21:00:04.514Z,2.39
2024-02-05T21:16:05.398Z,2.17
2024-02-05T21:31:05.018Z,2.28
2024-02-05T21:46:01.734Z,3.17
2024-02-05T22:00:02.552Z,4
2024-02-05T22:16:03.204Z,4.22
2024-02-05T22:31:03.348Z,4.06
2024-02-05T22:46:04.710Z,4.28
2024-02-05T23:00:05.167Z,4.28
2024-02-05T23:16:04.997Z,4.56
2024-02-05T23:31:01.546Z,4.67
2024-02-05T23:46:02.087Z,4.61
